Pinehurst, Washington
Current Conditions -  °F | °C
As of 7:53 AM on Friday 31 Oct 2014 (Local Time) from KPAE Reporting Station
Light Rain Light Rain  
Wind Chill: 50°   Ceiling: 200
Heat Index: 50°   Visibility: 1mi
Dew Point: 49°   Wind: 5mph
Humidity: 96%   Direction: 310°NW
Pressure: 29.7"   Gusts: NA
Location:  47.9451°N, 122.226°W
Report Text: KPAE 311453Z 31004KT 1SM R16R/2200VP6000FT -RA BR BKN002 OVC009 10/09 A2970 RMK AO2 SLP056 P0003 60009 T01000094 55000
Loading
Personal Weather Stations






























Interactive Weather Map
Tropical Storm Tracking
New forecast layout! Learn more

10-Day Weather Forecast

Advertisements
Track Severe Weather on mobile